Missoula, MT (59802)

8:48 PM MST on January 22, 2017 (GMT -0700)
Coal Mine Road | | Change Station
Active Advisory: Winter Weather Advisory

Elev 3523 ft 46.91 °N, 114.01 °W | Updated 7 minutes ago

Snow
Snow
29.5 °F
Feels Like 30 °F
N
1.2
Wind Variable Wind from West
Gusts 2.5 mph

Today
High -- | Low -- °F
--% Chance of Precip.
Yesterday
High -- | Low -- °F
Precip. -- in
Pressure 29.63 in
Visibility 3.0 miles
Clouds Mostly Cloudy 3100 ft
Overcast 4600 ft
Windchill 30 °F
Dew Point 29 °F
Humidity 99%
Rainfall Not available.
Snow Depth Not available.
8:11 AM 5:24 PM
Waning Crescent, 21% visible
SPECI KMSO 230315Z 11006KT 3SM -SN BR BKN031 OVC046 M01/M02 A2963 RMK AO2 P0001 T10111017
Pressure 29.63 in
Visibility 3.0 miles
Clouds Mostly Cloudy 3100 ft
Overcast 4600 ft
Windchill 30 °F
Dew Point 29 °F
Humidity 99%
Rainfall Not available.
Snow Depth Not available.
8:11 AM 5:24 PM
Waning Crescent, 21% visible
SPECI KMSO 230315Z 11006KT 3SM -SN BR BKN031 OVC046 M01/M02 A2963 RMK AO2 P0001 T10111017

Get Your Daily Forecast Email!

Thanks for signing up!

Be on the lookout for a verification email in your inbox.

You'll start receiving the daily forecast at 8 AM.

×

10-Day Weather Forecast

Almanac

Astronomy

Jan. 22, 2017 Rise Set
Actual Time
Civil Twilight
Nautical Twilight
Astronomical Twilight
Moon
Length of Visible Light
Length of Day
Tomorrow will be .
, % of the Moon is Illuminated

Today's Extremes

State Highs State Lows

Community

WunderPhotos

Upload Photos

1,962,540 photos uploaded!

WunderBlog® & News

Nearby

Air Quality

  Air Quality AQ Index Pollutant
Not available.

Snow Depth

Station Depth Elevation

Earthquake Activity

City Distance Mag. Time & Date
Minimum magnitude displayed is 2.5.

Coastal Water Temperatures

Place Temperature

Stations

Nearby Weather Stations

Station Location Temp. Windchill Dew Point Humidity Wind Precip. Elev Updated Type
                   

Watches & Warnings

Winter Weather Advisory
Issued: 1:44 PM MST Jan. 22, 2017 – National Weather Service

... Winter Weather Advisory in effect from 5 PM this afternoon to
11 am MST Monday for Bitterroot valley and Missoula...

* impacts/timing: light snow will develop early this evening and
become moderate at times into tonight. A change in Road
conditions from dry to snowcovered is expected. Though snow will
end overnight, the combination of snow and the refreeze of
liquid on roadways will impact the Monday morning commute with
slick travel conditions. Freezing fog by sunrise will obscure
visibility.

* Snow accumulations: 1 to 2 inches.